sensor_id;sensor_type;location;lat;lon;timestamp;temperature;humidity
60033;DHT22;45905;50.570;10.428;2022-10-19T00:01:12;13.10;99.90
60033;DHT22;45905;50.570;10.428;2022-10-19T00:03:43;13.20;99.90
60033;DHT22;45905;50.570;10.428;2022-10-19T00:06:17;13.20;99.90
60033;DHT22;45905;50.570;10.428;2022-10-19T00:08:58;13.20;99.90
60033;DHT22;45905;50.570;10.428;2022-10-19T00:11:28;13.20;99.90
60033;DHT22;45905;50.570;10.428;2022-10-19T00:13:57;13.20;99.90
60033;DHT22;45905;50.570;10.428;2022-10-19T00:16:28;13.30;99.90
60033;DHT22;45905;50.570;10.428;2022-10-19T00:18:57;13.20;99.90
60033;DHT22;45905;50.570;10.428;2022-10-19T00:21:26;13.20;99.90
60033;DHT22;45905;50.570;10.428;2022-10-19T00:23:53;13.20;99.90
60033;DHT22;45905;50.570;10.428;2022-10-19T00:26:21;13.20;99.90
60033;DHT22;45905;50.570;10.428;2022-10-19T00:28:48;13.20;99.90
60033;DHT22;45905;50.570;10.428;2022-10-19T00:31:16;13.30;99.90
60033;DHT22;45905;50.570;10.428;2022-10-19T00:33:45;13.20;99.90
60033;DHT22;45905;50.570;10.428;2022-10-19T00:36:33;13.10;99.90
60033;DHT22;45905;50.570;10.428;2022-10-19T00:39:04;13.10;99.90
60033;DHT22;45905;50.570;10.428;2022-10-19T00:41:34;13.10;99.90
60033;DHT22;45905;50.570;10.428;2022-10-19T00:46:43;13.10;99.90
60033;DHT22;45905;50.570;10.428;2022-10-19T00:49:16;13.00;99.90
60033;DHT22;45905;50.570;10.428;2022-10-19T00:51:51;13.00;99.90
60033;DHT22;45905;50.570;10.428;2022-10-19T00:54:21;13.00;99.90
60033;DHT22;45905;50.570;10.428;2022-10-19T00:56:52;12.90;99.90
60033;DHT22;45905;50.570;10.428;2022-10-19T00:59:23;13.00;99.90
60033;DHT22;45905;50.570;10.428;2022-10-19T01:29:34;12.80;99.90
60033;DHT22;45905;50.570;10.428;2022-10-19T01:32:48;12.80;99.90
60033;DHT22;45905;50.570;10.428;2022-10-19T01:43:01;12.70;99.90
60033;DHT22;45905;50.570;10.428;2022-10-19T01:45:04;12.70;99.90
60033;DHT22;45905;50.570;10.428;2022-10-19T01:48:13;12.70;99.90
60033;DHT22;45905;50.570;10.428;2022-10-19T01:53:26;12.70;99.90
60033;DHT22;45905;50.570;10.428;2022-10-19T01:55:56;12.70;99.90
60033;DHT22;45905;50.570;10.428;2022-10-19T01:58:28;12.70;99.90
60033;DHT22;45905;50.570;10.428;2022-10-19T02:01:02;12.70;99.90
60033;DHT22;45905;50.570;10.428;2022-10-19T02:03:33;12.70;99.90
60033;DHT22;45905;50.570;10.428;2022-10-19T02:06:04;12.60;99.90
60033;DHT22;45905;50.570;10.428;2022-10-19T02:08:43;12.60;99.90
60033;DHT22;45905;50.570;10.428;2022-10-19T02:11:14;12.60;99.90
60033;DHT22;45905;50.570;10.428;2022-10-19T02:13:44;12.60;99.90
60033;DHT22;45905;50.570;10.428;2022-10-19T02:16:22;12.60;99.90
60033;DHT22;45905;50.570;10.428;2022-10-19T02:18:55;12.70;99.90
60033;DHT22;45905;50.570;10.428;2022-10-19T02:21:26;12.60;99.90
60033;DHT22;45905;50.570;10.428;2022-10-19T02:23:53;12.60;99.90
60033;DHT22;45905;50.570;10.428;2022-10-19T02:26:21;12.50;99.90
60033;DHT22;45905;50.570;10.428;2022-10-19T02:28:48;12.50;99.90
60033;DHT22;45905;50.570;10.428;2022-10-19T02:31:16;12.50;99.90
60033;DHT22;45905;50.570;10.428;2022-10-19T02:33:43;12.50;99.90
60033;DHT22;45905;50.570;10.428;2022-10-19T02:36:11;12.50;99.90
60033;DHT22;45905;50.570;10.428;2022-10-19T02:38:39;12.40;99.90
60033;DHT22;45905;50.570;10.428;2022-10-19T02:44:10;12.40;99.90
60033;DHT22;45905;50.570;10.428;2022-10-19T02:46:57;12.40;99.90
60033;DHT22;45905;50.570;10.428;2022-10-19T02:49:34;12.40;99.90
60033;DHT22;45905;50.570;10.428;2022-10-19T02:52:06;12.40;99.90
60033;DHT22;45905;50.570;10.428;2022-10-19T02:54:35;12.40;99.90
60033;DHT22;45905;50.570;10.428;2022-10-19T02:57:20;12.40;99.90
60033;DHT22;45905;50.570;10.428;2022-10-19T02:59:50;12.50;99.90
60033;DHT22;45905;50.570;10.428;2022-10-19T03:02:19;12.40;99.90
60033;DHT22;45905;50.570;10.428;2022-10-19T03:04:46;12.40;99.90
60033;DHT22;45905;50.570;10.428;2022-10-19T03:07:16;12.40;99.90
60033;DHT22;45905;50.570;10.428;2022-10-19T03:09:44;12.40;99.90
60033;DHT22;45905;50.570;10.428;2022-10-19T03:12:13;12.40;99.90
60033;DHT22;45905;50.570;10.428;2022-10-19T03:14:40;12.30;99.90
60033;DHT22;45905;50.570;10.428;2022-10-19T03:17:08;12.30;99.90
60033;DHT22;45905;50.570;10.428;2022-10-19T03:19:36;12.30;99.90
60033;DHT22;45905;50.570;10.428;2022-10-19T03:22:03;12.30;99.90
60033;DHT22;45905;50.570;10.428;2022-10-19T03:24:30;12.40;99.90
60033;DHT22;45905;50.570;10.428;2022-10-19T03:26:57;12.40;99.90
60033;DHT22;45905;50.570;10.428;2022-10-19T03:29:25;12.30;99.90
60033;DHT22;45905;50.570;10.428;2022-10-19T03:31:52;12.20;99.90
60033;DHT22;45905;50.570;10.428;2022-10-19T03:34:19;12.20;99.90
60033;DHT22;45905;50.570;10.428;2022-10-19T03:36:46;12.20;99.90
60033;DHT22;45905;50.570;10.428;2022-10-19T03:39:15;12.30;99.90
60033;DHT22;45905;50.570;10.428;2022-10-19T03:41:42;12.20;99.90
60033;DHT22;45905;50.570;10.428;2022-10-19T03:44:10;12.20;99.90
60033;DHT22;45905;50.570;10.428;2022-10-19T03:46:38;12.20;99.90
60033;DHT22;45905;50.570;10.428;2022-10-19T03:49:06;12.30;99.90
60033;DHT22;45905;50.570;10.428;2022-10-19T03:51:35;12.10;99.90
60033;DHT22;45905;50.570;10.428;2022-10-19T03:54:06;12.10;99.90
60033;DHT22;45905;50.570;10.428;2022-10-19T03:56:35;12.00;99.90
60033;DHT22;45905;50.570;10.428;2022-10-19T03:59:03;12.00;99.90
60033;DHT22;45905;50.570;10.428;2022-10-19T04:01:37;12.00;99.90
60033;DHT22;45905;50.570;10.428;2022-10-19T04:04:10;12.00;99.90
60033;DHT22;45905;50.570;10.428;2022-10-19T04:06:41;11.90;99.90
60033;DHT22;45905;50.570;10.428;2022-10-19T04:09:15;11.90;99.90
60033;DHT22;45905;50.570;10.428;2022-10-19T04:11:45;11.80;99.90
60033;DHT22;45905;50.570;10.428;2022-10-19T04:14:15;11.80;99.90
60033;DHT22;45905;50.570;10.428;2022-10-19T04:16:59;11.80;99.90
60033;DHT22;45905;50.570;10.428;2022-10-19T04:19:27;11.80;99.90
60033;DHT22;45905;50.570;10.428;2022-10-19T04:21:54;11.70;99.90
60033;DHT22;45905;50.570;10.428;2022-10-19T04:24:22;11.70;99.90
60033;DHT22;45905;50.570;10.428;2022-10-19T04:26:51;11.70;99.90
60033;DHT22;45905;50.570;10.428;2022-10-19T04:29:21;11.60;99.90
60033;DHT22;45905;50.570;10.428;2022-10-19T04:31:55;11.60;99.90
60033;DHT22;45905;50.570;10.428;2022-10-19T04:34:22;11.60;99.90
60033;DHT22;45905;50.570;10.428;2022-10-19T04:36:49;11.50;99.90
60033;DHT22;45905;50.570;10.428;2022-10-19T04:39:18;11.50;99.90
60033;DHT22;45905;50.570;10.428;2022-10-19T04:41:45;11.40;99.90
60033;DHT22;45905;50.570;10.428;2022-10-19T04:44:12;11.50;99.90
60033;DHT22;45905;50.570;10.428;2022-10-19T04:46:39;11.50;99.90
60033;DHT22;45905;50.570;10.428;2022-10-19T04:49:06;11.50;99.90
60033;DHT22;45905;50.570;10.428;2022-10-19T04:51:34;11.50;99.90
60033;DHT22;45905;50.570;10.428;2022-10-19T04:54:02;11.40;99.90
60033;DHT22;45905;50.570;10.428;2022-10-19T04:56:30;11.40;99.90
60033;DHT22;45905;50.570;10.428;2022-10-19T04:58:58;11.40;99.90
60033;DHT22;45905;50.570;10.428;2022-10-19T05:01:28;11.40;99.90
60033;DHT22;45905;50.570;10.428;2022-10-19T05:03:58;11.40;99.90
60033;DHT22;45905;50.570;10.428;2022-10-19T05:06:29;11.40;99.90
60033;DHT22;45905;50.570;10.428;2022-10-19T05:08:58;11.40;99.90
60033;DHT22;45905;50.570;10.428;2022-10-19T05:11:25;11.40;99.90
60033;DHT22;45905;50.570;10.428;2022-10-19T05:13:55;11.30;99.90
60033;DHT22;45905;50.570;10.428;2022-10-19T05:16:23;11.30;99.90
60033;DHT22;45905;50.570;10.428;2022-10-19T05:18:53;11.30;99.90
60033;DHT22;45905;50.570;10.428;2022-10-19T05:21:26;11.20;99.90
60033;DHT22;45905;50.570;10.428;2022-10-19T05:23:55;11.20;99.90
60033;DHT22;45905;50.570;10.428;2022-10-19T05:26:24;11.20;99.90
60033;DHT22;45905;50.570;10.428;2022-10-19T05:28:55;11.10;99.90
60033;DHT22;45905;50.570;10.428;2022-10-19T05:31:27;11.10;99.90
60033;DHT22;45905;50.570;10.428;2022-10-19T05:33:56;11.00;99.90
60033;DHT22;45905;50.570;10.428;2022-10-19T05:36:25;11.00;99.90
60033;DHT22;45905;50.570;10.428;2022-10-19T05:38:55;11.00;99.90
60033;DHT22;45905;50.570;10.428;2022-10-19T05:41:24;11.10;99.90
60033;DHT22;45905;50.570;10.428;2022-10-19T05:43:54;10.90;99.90
60033;DHT22;45905;50.570;10.428;2022-10-19T05:46:23;10.90;99.90
60033;DHT22;45905;50.570;10.428;2022-10-19T05:48:51;10.90;99.90
60033;DHT22;45905;50.570;10.428;2022-10-19T05:51:20;10.90;99.90
60033;DHT22;45905;50.570;10.428;2022-10-19T05:53:48;10.80;99.90
60033;DHT22;45905;50.570;10.428;2022-10-19T05:56:19;10.80;99.90
60033;DHT22;45905;50.570;10.428;2022-10-19T05:58:48;10.80;99.90
60033;DHT22;45905;50.570;10.428;2022-10-19T06:01:16;10.80;99.90
60033;DHT22;45905;50.570;10.428;2022-10-19T06:03:50;10.80;99.90
60033;DHT22;45905;50.570;10.428;2022-10-19T06:06:19;10.70;99.90
60033;DHT22;45905;50.570;10.428;2022-10-19T06:08:48;10.70;99.90
60033;DHT22;45905;50.570;10.428;2022-10-19T06:11:21;10.60;99.90
60033;DHT22;45905;50.570;10.428;2022-10-19T06:13:53;10.40;99.90
60033;DHT22;45905;50.570;10.428;2022-10-19T06:16:24;10.50;99.90
60033;DHT22;45905;50.570;10.428;2022-10-19T06:18:54;10.40;99.90
60033;DHT22;45905;50.570;10.428;2022-10-19T06:21:23;10.30;99.90
60033;DHT22;45905;50.570;10.428;2022-10-19T06:23:55;10.30;99.90
60033;DHT22;45905;50.570;10.428;2022-10-19T06:26:25;10.30;99.90
60033;DHT22;45905;50.570;10.428;2022-10-19T06:28:57;10.30;99.90
60033;DHT22;45905;50.570;10.428;2022-10-19T06:31:27;10.20;99.90
60033;DHT22;45905;50.570;10.428;2022-10-19T06:33:58;10.20;99.90
60033;DHT22;45905;50.570;10.428;2022-10-19T06:36:28;10.20;99.90
60033;DHT22;45905;50.570;10.428;2022-10-19T06:38:57;10.20;99.90
60033;DHT22;45905;50.570;10.428;2022-10-19T06:41:25;10.20;99.90
60033;DHT22;45905;50.570;10.428;2022-10-19T06:43:55;10.20;99.90
60033;DHT22;45905;50.570;10.428;2022-10-19T06:46:23;10.20;99.90
60033;DHT22;45905;50.570;10.428;2022-10-19T06:48:54;10.20;99.90
60033;DHT22;45905;50.570;10.428;2022-10-19T06:51:23;10.20;99.90
60033;DHT22;45905;50.570;10.428;2022-10-19T06:53:53;10.20;99.90
60033;DHT22;45905;50.570;10.428;2022-10-19T06:56:23;10.30;99.90
60033;DHT22;45905;50.570;10.428;2022-10-19T06:58:51;10.30;99.90
60033;DHT22;45905;50.570;10.428;2022-10-19T07:01:20;10.30;99.90
60033;DHT22;45905;50.570;10.428;2022-10-19T07:03:52;10.30;99.90
60033;DHT22;45905;50.570;10.428;2022-10-19T07:06:20;10.30;99.90
60033;DHT22;45905;50.570;10.428;2022-10-19T07:08:48;10.30;99.90
60033;DHT22;45905;50.570;10.428;2022-10-19T07:11:18;10.30;99.90
60033;DHT22;45905;50.570;10.428;2022-10-19T07:13:46;10.40;99.90
60033;DHT22;45905;50.570;10.428;2022-10-19T07:16:15;10.40;99.90
60033;DHT22;45905;50.570;10.428;2022-10-19T07:18:51;10.40;99.90
60033;DHT22;45905;50.570;10.428;2022-10-19T07:21:21;10.40;99.90
60033;DHT22;45905;50.570;10.428;2022-10-19T07:23:49;10.40;99.90
60033;DHT22;45905;50.570;10.428;2022-10-19T07:26:19;10.40;99.90
60033;DHT22;45905;50.570;10.428;2022-10-19T07:28:49;10.40;99.90
60033;DHT22;45905;50.570;10.428;2022-10-19T07:31:19;10.30;99.90
60033;DHT22;45905;50.570;10.428;2022-10-19T07:33:53;10.30;99.90
60033;DHT22;45905;50.570;10.428;2022-10-19T07:36:21;10.30;99.90
60033;DHT22;45905;50.570;10.428;2022-10-19T07:38:50;10.30;99.90
60033;DHT22;45905;50.570;10.428;2022-10-19T07:41:19;10.20;99.90
60033;DHT22;45905;50.570;10.428;2022-10-19T07:43:49;10.30;99.90
60033;DHT22;45905;50.570;10.428;2022-10-19T07:46:19;10.30;99.90
60033;DHT22;45905;50.570;10.428;2022-10-19T07:48:48;10.20;99.90
60033;DHT22;45905;50.570;10.428;2022-10-19T07:51:17;10.30;99.90
60033;DHT22;45905;50.570;10.428;2022-10-19T07:53:45;10.20;99.90
60033;DHT22;45905;50.570;10.428;2022-10-19T07:56:18;10.40;99.90
60033;DHT22;45905;50.570;10.428;2022-10-19T07:58:53;10.40;99.90
60033;DHT22;45905;50.570;10.428;2022-10-19T08:01:30;10.20;99.90
60033;DHT22;45905;50.570;10.428;2022-10-19T08:04:00;10.20;99.90
60033;DHT22;45905;50.570;10.428;2022-10-19T08:06:48;10.20;99.90
60033;DHT22;45905;50.570;10.428;2022-10-19T08:09:15;10.20;99.90
60033;DHT22;45905;50.570;10.428;2022-10-19T08:12:03;10.20;99.90
60033;DHT22;45905;50.570;10.428;2022-10-19T08:14:31;10.20;99.90
60033;DHT22;45905;50.570;10.428;2022-10-19T08:16:59;10.10;99.90
60033;DHT22;45905;50.570;10.428;2022-10-19T08:19:26;10.20;99.90
60033;DHT22;45905;50.570;10.428;2022-10-19T08:21:54;10.10;99.90
60033;DHT22;45905;50.570;10.428;2022-10-19T08:24:21;10.20;99.90
60033;DHT22;45905;50.570;10.428;2022-10-19T08:26:48;10.20;99.90
60033;DHT22;45905;50.570;10.428;2022-10-19T08:29:19;10.20;99.90
60033;DHT22;45905;50.570;10.428;2022-10-19T08:31:47;10.20;99.90
60033;DHT22;45905;50.570;10.428;2022-10-19T08:34:15;10.20;99.90
60033;DHT22;45905;50.570;10.428;2022-10-19T08:36:42;10.20;99.90
60033;DHT22;45905;50.570;10.428;2022-10-19T08:39:10;10.30;99.90
60033;DHT22;45905;50.570;10.428;2022-10-19T08:47:13;10.30;99.90
60033;DHT22;45905;50.570;10.428;2022-10-19T08:49:54;10.40;99.90
60033;DHT22;45905;50.570;10.428;2022-10-19T08:52:33;10.40;99.90
60033;DHT22;45905;50.570;10.428;2022-10-19T08:55:07;10.50;99.90
60033;DHT22;45905;50.570;10.428;2022-10-19T08:57:59;10.50;99.90
60033;DHT22;45905;50.570;10.428;2022-10-19T09:00:55;10.60;99.90
60033;DHT22;45905;50.570;10.428;2022-10-19T09:03:54;10.60;99.90
60033;DHT22;45905;50.570;10.428;2022-10-19T09:09:24;10.70;99.90
60033;DHT22;45905;50.570;10.428;2022-10-19T09:11:54;10.60;99.90
60033;DHT22;45905;50.570;10.428;2022-10-19T09:14:32;10.70;99.90
60033;DHT22;45905;50.570;10.428;2022-10-19T09:17:10;10.70;99.90
60033;DHT22;45905;50.570;10.428;2022-10-19T09:19:40;10.70;99.90
60033;DHT22;45905;50.570;10.428;2022-10-19T09:22:19;10.70;99.90
60033;DHT22;45905;50.570;10.428;2022-10-19T09:25:01;10.60;99.90
60033;DHT22;45905;50.570;10.428;2022-10-19T09:28:09;10.60;99.90
60033;DHT22;45905;50.570;10.428;2022-10-19T09:30:46;10.60;99.90
60033;DHT22;45905;50.570;10.428;2022-10-19T09:33:32;10.60;99.90
60033;DHT22;45905;50.570;10.428;2022-10-19T09:36:04;10.70;99.90
60033;DHT22;45905;50.570;10.428;2022-10-19T09:38:33;10.60;99.90
60033;DHT22;45905;50.570;10.428;2022-10-19T09:41:14;10.60;99.90
60033;DHT22;45905;50.570;10.428;2022-10-19T09:43:48;10.60;99.90
60033;DHT22;45905;50.570;10.428;2022-10-19T09:46:34;10.60;99.90
60033;DHT22;45905;50.570;10.428;2022-10-19T09:49:07;10.70;99.90
60033;DHT22;45905;50.570;10.428;2022-10-19T09:51:49;10.80;99.90
60033;DHT22;45905;50.570;10.428;2022-10-19T09:54:34;10.70;99.90
60033;DHT22;45905;50.570;10.428;2022-10-19T09:57:04;10.80;99.90
60033;DHT22;45905;50.570;10.428;2022-10-19T09:59:36;10.80;99.90
60033;DHT22;45905;50.570;10.428;2022-10-19T10:02:16;11.00;99.90
60033;DHT22;45905;50.570;10.428;2022-10-19T10:04:53;11.00;99.90
60033;DHT22;45905;50.570;10.428;2022-10-19T10:07:26;11.10;99.90
60033;DHT22;45905;50.570;10.428;2022-10-19T10:10:00;11.10;99.90
60033;DHT22;45905;50.570;10.428;2022-10-19T10:12:27;11.10;99.90
60033;DHT22;45905;50.570;10.428;2022-10-19T10:14:55;11.20;99.90
60033;DHT22;45905;50.570;10.428;2022-10-19T10:17:27;11.20;99.90
60033;DHT22;45905;50.570;10.428;2022-10-19T10:22:32;11.40;99.90
60033;DHT22;45905;50.570;10.428;2022-10-19T10:25:11;11.50;99.90
60033;DHT22;45905;50.570;10.428;2022-10-19T10:27:54;11.70;99.90
60033;DHT22;45905;50.570;10.428;2022-10-19T10:30:23;11.70;99.90
60033;DHT22;45905;50.570;10.428;2022-10-19T10:32:55;11.80;99.60
60033;DHT22;45905;50.570;10.428;2022-10-19T10:35:46;11.80;99.30
60033;DHT22;45905;50.570;10.428;2022-10-19T10:38:24;11.90;99.40
60033;DHT22;45905;50.570;10.428;2022-10-19T10:40:59;12.00;99.10
60033;DHT22;45905;50.570;10.428;2022-10-19T10:43:34;12.10;98.90
60033;DHT22;45905;50.570;10.428;2022-10-19T10:46:14;12.10;99.40
60033;DHT22;45905;50.570;10.428;2022-10-19T10:48:57;12.20;99.70
60033;DHT22;45905;50.570;10.428;2022-10-19T10:51:38;12.30;99.70
60033;DHT22;45905;50.570;10.428;2022-10-19T10:54:26;12.40;99.20
60033;DHT22;45905;50.570;10.428;2022-10-19T11:05:50;12.70;98.10
60033;DHT22;45905;50.570;10.428;2022-10-19T11:11:38;12.80;98.50
60033;DHT22;45905;50.570;10.428;2022-10-19T11:14:24;13.00;98.40
60033;DHT22;45905;50.570;10.428;2022-10-19T11:16:53;13.10;98.00
60033;DHT22;45905;50.570;10.428;2022-10-19T11:19:28;13.20;97.30
60033;DHT22;45905;50.570;10.428;2022-10-19T11:22:09;13.30;97.50
60033;DHT22;45905;50.570;10.428;2022-10-19T11:30:46;13.70;97.20
60033;DHT22;45905;50.570;10.428;2022-10-19T11:42:54;14.30;96.40
60033;DHT22;45905;50.570;10.428;2022-10-19T11:45:49;14.40;96.80
60033;DHT22;45905;50.570;10.428;2022-10-19T11:51:34;14.60;96.00
60033;DHT22;45905;50.570;10.428;2022-10-19T12:11:26;15.20;93.70
60033;DHT22;45905;50.570;10.428;2022-10-19T12:14:03;15.10;92.60
60033;DHT22;45905;50.570;10.428;2022-10-19T12:16:39;15.00;93.80
60033;DHT22;45905;50.570;10.428;2022-10-19T12:19:30;15.10;94.30
60033;DHT22;45905;50.570;10.428;2022-10-19T12:22:03;15.20;94.40
60033;DHT22;45905;50.570;10.428;2022-10-19T12:24:37;15.30;93.90
60033;DHT22;45905;50.570;10.428;2022-10-19T12:27:04;15.40;93.20
60033;DHT22;45905;50.570;10.428;2022-10-19T12:29:36;15.50;92.20
60033;DHT22;45905;50.570;10.428;2022-10-19T12:32:10;15.40;91.20
60033;DHT22;45905;50.570;10.428;2022-10-19T12:37:48;15.40;93.00
60033;DHT22;45905;50.570;10.428;2022-10-19T12:40:49;15.60;93.10
60033;DHT22;45905;50.570;10.428;2022-10-19T12:43:29;15.60;91.60
60033;DHT22;45905;50.570;10.428;2022-10-19T12:51:56;15.90;91.20
60033;DHT22;45905;50.570;10.428;2022-10-19T12:54:27;15.80;91.40
60033;DHT22;45905;50.570;10.428;2022-10-19T12:56:58;15.80;91.50
60033;DHT22;45905;50.570;10.428;2022-10-19T12:59:35;15.80;91.90
60033;DHT22;45905;50.570;10.428;2022-10-19T13:02:05;15.80;91.30
60033;DHT22;45905;50.570;10.428;2022-10-19T13:04:52;15.80;90.70
60033;DHT22;45905;50.570;10.428;2022-10-19T13:07:20;15.90;90.30
60033;DHT22;45905;50.570;10.428;2022-10-19T13:09:47;15.80;90.70
60033;DHT22;45905;50.570;10.428;2022-10-19T13:15:02;15.90;91.50
60033;DHT22;45905;50.570;10.428;2022-10-19T13:25:32;16.60;91.40
60033;DHT22;45905;50.570;10.428;2022-10-19T13:33:43;16.90;91.00
60033;DHT22;45905;50.570;10.428;2022-10-19T13:36:11;17.00;91.80
60033;DHT22;45905;50.570;10.428;2022-10-19T13:38:40;17.00;91.60
60033;DHT22;45905;50.570;10.428;2022-10-19T13:41:22;17.20;90.70
60033;DHT22;45905;50.570;10.428;2022-10-19T13:44:01;17.20;90.00
60033;DHT22;45905;50.570;10.428;2022-10-19T14:00:21;17.50;85.90
60033;DHT22;45905;50.570;10.428;2022-10-19T14:03:07;17.50;84.70
60033;DHT22;45905;50.570;10.428;2022-10-19T14:05:55;17.60;86.00
60033;DHT22;45905;50.570;10.428;2022-10-19T14:08:58;17.60;87.10
60033;DHT22;45905;50.570;10.428;2022-10-19T14:11:45;17.70;86.00
60033;DHT22;45905;50.570;10.428;2022-10-19T14:14:21;17.80;82.70
60033;DHT22;45905;50.570;10.428;2022-10-19T14:16:54;17.90;86.00
60033;DHT22;45905;50.570;10.428;2022-10-19T14:19:32;17.90;84.60
60033;DHT22;45905;50.570;10.428;2022-10-19T14:25:20;18.00;84.00
60033;DHT22;45905;50.570;10.428;2022-10-19T14:28:00;18.10;83.30
60033;DHT22;45905;50.570;10.428;2022-10-19T14:30:35;18.10;83.20
60033;DHT22;45905;50.570;10.428;2022-10-19T14:33:08;18.10;82.20
60033;DHT22;45905;50.570;10.428;2022-10-19T14:35:39;18.00;84.20
60033;DHT22;45905;50.570;10.428;2022-10-19T14:38:19;17.90;83.20
60033;DHT22;45905;50.570;10.428;2022-10-19T14:43:55;17.70;83.00
60033;DHT22;45905;50.570;10.428;2022-10-19T14:46:32;17.70;84.90
60033;DHT22;45905;50.570;10.428;2022-10-19T14:49:02;17.70;85.20
60033;DHT22;45905;50.570;10.428;2022-10-19T14:51:47;17.60;83.30
60033;DHT22;45905;50.570;10.428;2022-10-19T14:54:36;17.60;84.00
60033;DHT22;45905;50.570;10.428;2022-10-19T15:00:05;17.30;83.10
60033;DHT22;45905;50.570;10.428;2022-10-19T15:03:01;17.20;84.10
60033;DHT22;45905;50.570;10.428;2022-10-19T15:05:36;17.10;84.00
60033;DHT22;45905;50.570;10.428;2022-10-19T15:08:22;17.00;84.20
60033;DHT22;45905;50.570;10.428;2022-10-19T15:10:57;16.80;84.10
60033;DHT22;45905;50.570;10.428;2022-10-19T15:13:33;16.70;84.30
60033;DHT22;45905;50.570;10.428;2022-10-19T15:16:06;16.60;84.10
60033;DHT22;45905;50.570;10.428;2022-10-19T15:18:55;16.50;84.40
60033;DHT22;45905;50.570;10.428;2022-10-19T15:21:22;16.30;85.40
60033;DHT22;45905;50.570;10.428;2022-10-19T15:23:50;16.20;85.90
60033;DHT22;45905;50.570;10.428;2022-10-19T15:28:53;16.10;86.50
60033;DHT22;45905;50.570;10.428;2022-10-19T15:31:32;16.00;85.70
60033;DHT22;45905;50.570;10.428;2022-10-19T15:34:00;15.90;86.10
60033;DHT22;45905;50.570;10.428;2022-10-19T15:36:30;15.80;86.70
60033;DHT22;45905;50.570;10.428;2022-10-19T15:39:03;15.80;87.10
60033;DHT22;45905;50.570;10.428;2022-10-19T15:41:51;15.70;87.60
60033;DHT22;45905;50.570;10.428;2022-10-19T15:44:54;15.60;87.70
60033;DHT22;45905;50.570;10.428;2022-10-19T15:47:22;15.60;88.20
60033;DHT22;45905;50.570;10.428;2022-10-19T15:49:56;15.50;88.80
60033;DHT22;45905;50.570;10.428;2022-10-19T15:52:27;15.40;89.20
60033;DHT22;45905;50.570;10.428;2022-10-19T15:54:59;15.40;89.60
60033;DHT22;45905;50.570;10.428;2022-10-19T15:57:33;15.30;90.00
60033;DHT22;45905;50.570;10.428;2022-10-19T16:00:15;15.30;90.20
60033;DHT22;45905;50.570;10.428;2022-10-19T16:02:43;15.20;90.30
60033;DHT22;45905;50.570;10.428;2022-10-19T16:05:11;15.10;90.30
60033;DHT22;45905;50.570;10.428;2022-10-19T16:07:40;15.00;90.40
60033;DHT22;45905;50.570;10.428;2022-10-19T16:10:17;15.00;90.50
60033;DHT22;45905;50.570;10.428;2022-10-19T16:12:47;14.90;90.60
60033;DHT22;45905;50.570;10.428;2022-10-19T16:15:16;14.80;90.70
60033;DHT22;45905;50.570;10.428;2022-10-19T16:17:57;14.70;90.70
60033;DHT22;45905;50.570;10.428;2022-10-19T16:20:26;14.60;90.80
60033;DHT22;45905;50.570;10.428;2022-10-19T16:22:55;14.50;90.80
60033;DHT22;45905;50.570;10.428;2022-10-19T16:25:23;14.40;90.90
60033;DHT22;45905;50.570;10.428;2022-10-19T16:27:50;14.30;90.70
60033;DHT22;45905;50.570;10.428;2022-10-19T16:30:17;14.30;90.80
60033;DHT22;45905;50.570;10.428;2022-10-19T16:32:47;14.10;90.70
60033;DHT22;45905;50.570;10.428;2022-10-19T16:35:15;14.10;90.70
60033;DHT22;45905;50.570;10.428;2022-10-19T16:37:42;14.00;90.70
60033;DHT22;45905;50.570;10.428;2022-10-19T16:40:09;13.90;90.80
60033;DHT22;45905;50.570;10.428;2022-10-19T16:42:37;13.80;90.90
60033;DHT22;45905;50.570;10.428;2022-10-19T16:45:04;13.70;91.00
60033;DHT22;45905;50.570;10.428;2022-10-19T16:47:32;13.60;90.90
60033;DHT22;45905;50.570;10.428;2022-10-19T16:50:00;13.60;90.80
60033;DHT22;45905;50.570;10.428;2022-10-19T16:52:29;13.50;90.90
60033;DHT22;45905;50.570;10.428;2022-10-19T16:54:59;13.40;90.80
60033;DHT22;45905;50.570;10.428;2022-10-19T16:57:26;13.30;91.00
60033;DHT22;45905;50.570;10.428;2022-10-19T16:59:53;13.20;91.10
60033;DHT22;45905;50.570;10.428;2022-10-19T17:02:21;13.10;91.00
60033;DHT22;45905;50.570;10.428;2022-10-19T17:04:48;13.00;91.10
60033;DHT22;45905;50.570;10.428;2022-10-19T17:07:15;13.00;91.30
60033;DHT22;45905;50.570;10.428;2022-10-19T17:09:43;12.90;91.40
60033;DHT22;45905;50.570;10.428;2022-10-19T17:12:11;12.80;91.40
60033;DHT22;45905;50.570;10.428;2022-10-19T17:14:39;12.70;91.40
60033;DHT22;45905;50.570;10.428;2022-10-19T17:17:09;12.70;91.50
60033;DHT22;45905;50.570;10.428;2022-10-19T17:19:37;12.60;91.70
60033;DHT22;45905;50.570;10.428;2022-10-19T17:22:04;12.60;91.80
60033;DHT22;45905;50.570;10.428;2022-10-19T17:24:31;12.50;91.80
60033;DHT22;45905;50.570;10.428;2022-10-19T17:27:00;12.50;91.80
60033;DHT22;45905;50.570;10.428;2022-10-19T17:29:30;12.40;92.00
60033;DHT22;45905;50.570;10.428;2022-10-19T17:31:58;12.30;92.00
60033;DHT22;45905;50.570;10.428;2022-10-19T17:34:25;12.30;91.80
60033;DHT22;45905;50.570;10.428;2022-10-19T17:36:53;12.00;91.90
60033;DHT22;45905;50.570;10.428;2022-10-19T17:39:21;12.10;91.80
60033;DHT22;45905;50.570;10.428;2022-10-19T17:41:56;12.10;92.10
60033;DHT22;45905;50.570;10.428;2022-10-19T17:44:28;12.00;92.20
60033;DHT22;45905;50.570;10.428;2022-10-19T17:46:58;12.00;92.20
60033;DHT22;45905;50.570;10.428;2022-10-19T17:49:25;11.90;92.30
60033;DHT22;45905;50.570;10.428;2022-10-19T17:51:53;11.80;92.30
60033;DHT22;45905;50.570;10.428;2022-10-19T17:54:20;11.80;92.30
60033;DHT22;45905;50.570;10.428;2022-10-19T17:56:47;11.70;92.40
60033;DHT22;45905;50.570;10.428;2022-10-19T17:59:14;11.70;92.40
60033;DHT22;45905;50.570;10.428;2022-10-19T18:01:41;11.70;92.50
60033;DHT22;45905;50.570;10.428;2022-10-19T18:04:08;11.60;92.50
60033;DHT22;45905;50.570;10.428;2022-10-19T18:06:36;11.60;92.60
60033;DHT22;45905;50.570;10.428;2022-10-19T18:09:05;11.50;92.50
60033;DHT22;45905;50.570;10.428;2022-10-19T18:11:38;11.60;92.50
60033;DHT22;45905;50.570;10.428;2022-10-19T18:14:08;11.30;92.40
60033;DHT22;45905;50.570;10.428;2022-10-19T18:16:39;11.30;92.50
60033;DHT22;45905;50.570;10.428;2022-10-19T18:19:11;11.30;92.60
60033;DHT22;45905;50.570;10.428;2022-10-19T18:21:43;11.20;92.60